Terminal Aerodrome Forecast
Issued by NWS

Home | Current Version | Previous Version | Text Only | Print | Product List | Glossary On
Versions: 1 2 3 4 5 6 7 8 9 10 11 12 13 14 15 16 17 18 19 20
000
FTUS44 KBMX 270747 AAA
TAFTOI
TAF AMD
KTOI 270747Z 2708/2806 33012G20KT P6SM VCSH OVC006
      TEMPO 2708/2710 BKN006 OVC015
     FM271000 31012G18KT P6SM SCT008 BKN015
      TEMPO 2710/2713 BKN008 OVC015
     FM271700 32012G18KT P6SM SCT025=

USA.gov is the U.S. government's official web portal to all federal, state and local government web resources and services.